Airfield :
LOGIN :

Register | Disclaimer

   EN    FR    IT 

 










Legend :    VFR   Marginal VFR   IFR   Intensive IFR   Very Intensive IFR
Visi :
Ceiling :
>= 8 km
>= 3000ft
5 to 8 km
1000 to 3000 ft
1500m to 5 km
500 to 1000 ft
800 to 1500m
200 to 500 ft
< 800m
< 200 ft
Symbols :   Thunderstorms  Fog  Heavy snow  Heavy precipitations  Wind > 20 kt
SIGMETs :     Misc.  Thunderstorms  Icing  Turbulence  Mountain Waves  Volcanic Ashes






- Airport Elevation : 187 ft


LPMR - Monte Real Air Base

CURRENT METAR :
  • 271700Z 28003KT 9999 FEW008 BKN040 16/15 Q1023

EXPIRED METARs :
  • 271600Z 28005KT 230V300 9999 FEW008 SCT035 16/15 Q1023
  • 271500Z 24004KT 210V270 7000 FEW008 BKN040 16/15 Q1023

TAF TAF LPMR
Valid from the 27 at 18:00 until the 28 at 18:00 UTC


271702Z 2718/2818 33008KT 9999 SCT020 BKN030
BECMG 2801/2803 VRB02KT
BECMG 2811/2813 35008KT



MET'MAP, your aeronautical weather chart ! - Copyright ORBIFLY December 2007 - Disclaimer

ORBIFLY MET'MAP TEAM :

Programming & Development : Alexandra Zaïnal
Original concept : Baudouin d'Aumeries
Technical & hardware support : Manuel Goepfert
Assistance : Marc-Olivier Méhu




SOURCES & CREDITS :

   NOAA